This is the latest recevied weather packets stored in our database for station/object KC5DP. If no packets are shown the sender has not sent any weather packets the latest 10 day(s).
| Time | Temp. | Humidity | Pressure | Rain* | Wind** | Luminosity | Snow |
|---|---|---|---|---|---|---|---|
| 1777474472 | 26.67° C | 80% | 1014.3 hPa | 0 mm | - | 127 W/m² | - |
| 1777474168 | 27.22° C | 78% | 1014.5 hPa | 0 mm | - | 212 W/m² | - |
| 1777473867 | 26.67° C | 80% | 1014.4 hPa | 0 mm | - | 532 W/m² | - |
| 1777473564 | 26.67° C | 79% | 1014.5 hPa | 0 mm | - | 489 W/m² | - |
| 1777473259 | 26.11° C | 81% | 1014.6 hPa | 0 mm | - | 429 W/m² | - |
| 1777472955 | 26.11° C | 82% | 1014.4 hPa | 0 mm | - | 195 W/m² | - |
| 1777472652 | 25.56° C | 84% | 1014.5 hPa | 0 mm | - | 281 W/m² | - |
| 1777472348 | 25.56° C | 85% | 1014.5 hPa | 0 mm | - | 125 W/m² | - |
| 1777472046 | 25.56° C | 85% | 1014.4 hPa | 0 mm | - | 169 W/m² | - |
| 1777471741 | 25.56° C | 85% | 1014.4 hPa | 0 mm | - | 171 W/m² | - |
| 1777471438 | 25° C | 87% | 1014.4 hPa | 0 mm | - | 387 W/m² | - |
| 1777471135 | 24.44° C | 89% | 1014.5 hPa | 0 mm | - | 207 W/m² | - |
| 1777470832 | 24.44° C | 89% | 1014.5 hPa | 0 mm | - | 146 W/m² | - |
| 1777470529 | 25° C | 88% | 1014.5 hPa | 0 mm | - | 136 W/m² | - |
| 1777470225 | 25° C | 89% | 1014.2 hPa | 0 mm | - | 143 W/m² | - |
| 1777469921 | 25° C | 87% | 1014.1 hPa | 0 mm | - | 206 W/m² | - |
| 1777469616 | 24.44° C | 90% | 1014.1 hPa | 0 mm | - | 193 W/m² | - |
| 1777469312 | 23.89° C | 91% | 1014.2 hPa | 0 mm | - | 219 W/m² | - |
| 1777469007 | 23.33° C | 93% | 1014.3 hPa | 0 mm | - | 184 W/m² | - |
| 1777468703 | 22.78° C | 96% | 1014.2 hPa | 0 mm | - | 161 W/m² | - |
| 1777468399 | 22.78° C | 98% | 1014.4 hPa | 0 mm | - | 145 W/m² | - |
| 1777468096 | 22.78° C | 99% | 1014.2 hPa | 0 mm | - | 138 W/m² | - |
| 1777467792 | 22.22° C | 99% | 1014.6 hPa | 0 mm | - | 132 W/m² | - |
| 1777467488 | 21.67° C | 99% | 1014.5 hPa | 0 mm | - | 118 W/m² | - |
| 1777467183 | 21.67° C | 99% | 1014.7 hPa | 0 mm | - | 99 W/m² | - |
* Rain latest hour (hover to see other rain measurements)
** Current wind speed in m/s (hover to see current wind gust speed)